Ras Al Khaimah International Airport
OMRK : now visible

Airfield :











YOU CAN JOIN US ON...

 
LOGIN :

Register | Disclaimer

   EN    FR    IT 

 









Legend :    VFR   Marginal VFR   IFR   Intensive IFR   Very Intensive IFR
Visi :
Ceiling :
>= 8 km
>= 3000ft
5 to 8 km
1000 to 3000 ft
1500m to 5 km
500 to 1000 ft
800 to 1500m
200 to 500 ft
< 800m
< 200 ft
Symbols :   Thunderstorms  Fog  Heavy snow  Heavy precipitations  Wind > 20 kt







- Airport Elevation : 102 ft
- IATA code : RKT


OMRK - Ras Al Khaimah International

CURRENT METAR :
  • 220600Z 01006KT 9999 SCT040 23/17 Q1017 A3005

EXPIRED METARs :
  • 220500Z 05007KT 8000 -RA SCT040 21/16 Q1017 RERA A3004
  • 220400Z 21004KT 8000 -RA FEW040 21/16 Q1017 A3004

TAF TAF OMRK
Valid from the 22 at 06:00 until the 23 at 12:00 UTC


220454Z 2206/2312 20007KT 8000 NSC
PROB30
TEMPO 2206/2214 VRB15G25KT 3000 SHRA BLDU FEW040TCU
BECMG 2208/2210 35014KT
BECMG 2214/2216 10008KT
PROB30
TEMPO 2220/2310 VRB18G30KT 3000 TSRA BLDU FEW040CB
BECMG 2309/2311 36012KT
OMAE FIR / Asia



MET'MAP, your aeronautical weather chart ! - Copyright ORBIFLY December 2007 - Disclaimer

ORBIFLY MET'MAP TEAM :

Programming & Development : Alexandra Zaïnal
Concept & Development : Baudouin d'Aumeries
Co-Development & Prog : Marc-Olivier Méhu
Technical & hardware support : Manuel Goepfert

Contact : metmap@orbifly.com




SOURCES & CREDITS :

   NOAA       Earth
Advisory